sensor_id;sensor_type;location;lat;lon;timestamp;temperature;humidity
68450;SHT30;67758;39.572;2.652;2023-09-08T00:02:03;22.95;77.36
68450;SHT30;67758;39.572;2.652;2023-09-08T00:04:30;22.92;77.33
68450;SHT30;67758;39.572;2.652;2023-09-08T00:06:55;22.88;77.47
68450;SHT30;67758;39.572;2.652;2023-09-08T00:09:21;22.88;77.65
68450;SHT30;67758;39.572;2.652;2023-09-08T00:11:47;22.88;77.76
68450;SHT30;67758;39.572;2.652;2023-09-08T00:14:12;22.88;77.90
68450;SHT30;67758;39.572;2.652;2023-09-08T00:16:38;22.87;77.98
68450;SHT30;67758;39.572;2.652;2023-09-08T00:19:09;22.88;78.07
68450;SHT30;67758;39.572;2.652;2023-09-08T00:21:36;22.88;77.90
68450;SHT30;67758;39.572;2.652;2023-09-08T00:24:02;22.87;77.94
68450;SHT30;67758;39.572;2.652;2023-09-08T00:26:29;22.84;78.07
68450;SHT30;67758;39.572;2.652;2023-09-08T00:28:55;22.83;78.11
68450;SHT30;67758;39.572;2.652;2023-09-08T00:31:21;22.83;78.31
68450;SHT30;67758;39.572;2.652;2023-09-08T00:33:47;22.88;78.09
68450;SHT30;67758;39.572;2.652;2023-09-08T00:36:12;22.90;78.00
68450;SHT30;67758;39.572;2.652;2023-09-08T00:38:38;22.91;77.94
68450;SHT30;67758;39.572;2.652;2023-09-08T00:41:05;22.85;78.02
68450;SHT30;67758;39.572;2.652;2023-09-08T00:43:30;22.83;78.10
68450;SHT30;67758;39.572;2.652;2023-09-08T00:45:57;22.83;78.07
68450;SHT30;67758;39.572;2.652;2023-09-08T00:48:25;22.85;77.98
68450;SHT30;67758;39.572;2.652;2023-09-08T00:50:51;22.79;78.08
68450;SHT30;67758;39.572;2.652;2023-09-08T00:53:17;22.75;78.21
68450;SHT30;67758;39.572;2.652;2023-09-08T00:55:43;22.75;78.37
68450;SHT30;67758;39.572;2.652;2023-09-08T00:58:11;22.72;78.51
68450;SHT30;67758;39.572;2.652;2023-09-08T01:00:37;22.74;78.47
68450;SHT30;67758;39.572;2.652;2023-09-08T01:03:03;22.78;78.35
68450;SHT30;67758;39.572;2.652;2023-09-08T01:05:29;22.79;78.41
68450;SHT30;67758;39.572;2.652;2023-09-08T01:07:55;22.75;78.34
68450;SHT30;67758;39.572;2.652;2023-09-08T01:10:21;22.78;78.28
68450;SHT30;67758;39.572;2.652;2023-09-08T01:12:48;22.78;78.26
68450;SHT30;67758;39.572;2.652;2023-09-08T01:15:13;22.83;78.21
68450;SHT30;67758;39.572;2.652;2023-09-08T01:17:39;22.79;78.27
68450;SHT30;67758;39.572;2.652;2023-09-08T01:20:18;22.72;78.45
68450;SHT30;67758;39.572;2.652;2023-09-08T01:26:07;22.67;78.43
68450;SHT30;67758;39.572;2.652;2023-09-08T01:28:32;22.57;78.60
68450;SHT30;67758;39.572;2.652;2023-09-08T01:30:58;22.54;78.82
68450;SHT30;67758;39.572;2.652;2023-09-08T01:33:24;22.50;79.05
68450;SHT30;67758;39.572;2.652;2023-09-08T01:35:51;22.44;79.32
68450;SHT30;67758;39.572;2.652;2023-09-08T01:38:16;22.50;79.06
68450;SHT30;67758;39.572;2.652;2023-09-08T01:40:42;22.51;78.89
68450;SHT30;67758;39.572;2.652;2023-09-08T01:43:08;22.47;79.00
68450;SHT30;67758;39.572;2.652;2023-09-08T01:45:33;22.44;79.08
68450;SHT30;67758;39.572;2.652;2023-09-08T01:47:59;22.47;78.92
68450;SHT30;67758;39.572;2.652;2023-09-08T01:50:25;22.44;78.89
68450;SHT30;67758;39.572;2.652;2023-09-08T01:52:51;22.44;78.94
68450;SHT30;67758;39.572;2.652;2023-09-08T01:55:17;22.41;78.95
68450;SHT30;67758;39.572;2.652;2023-09-08T01:57:43;22.40;78.84
68450;SHT30;67758;39.572;2.652;2023-09-08T02:00:13;22.39;78.80
68450;SHT30;67758;39.572;2.652;2023-09-08T02:02:39;22.29;78.99
68450;SHT30;67758;39.572;2.652;2023-09-08T02:05:05;22.26;79.17
68450;SHT30;67758;39.572;2.652;2023-09-08T02:07:31;22.21;79.12
68450;SHT30;67758;39.572;2.652;2023-09-08T02:09:57;22.21;78.98
68450;SHT30;67758;39.572;2.652;2023-09-08T02:12:22;22.21;78.66
68450;SHT30;67758;39.572;2.652;2023-09-08T02:14:48;22.26;78.42
68450;SHT30;67758;39.572;2.652;2023-09-08T02:17:14;22.24;78.52
68450;SHT30;67758;39.572;2.652;2023-09-08T02:19:39;22.27;78.36
68450;SHT30;67758;39.572;2.652;2023-09-08T02:22:05;22.34;78.23
68450;SHT30;67758;39.572;2.652;2023-09-08T02:24:31;22.34;77.91
68450;SHT30;67758;39.572;2.652;2023-09-08T02:26:57;22.34;77.80
68450;SHT30;67758;39.572;2.652;2023-09-08T02:29:22;22.33;77.60
68450;SHT30;67758;39.572;2.652;2023-09-08T02:31:48;22.29;77.65
68450;SHT30;67758;39.572;2.652;2023-09-08T02:34:14;22.26;77.43
68450;SHT30;67758;39.572;2.652;2023-09-08T02:36:40;22.32;77.94
68450;SHT30;67758;39.572;2.652;2023-09-08T02:39:06;22.23;77.96
68450;SHT30;67758;39.572;2.652;2023-09-08T02:41:32;22.23;77.72
68450;SHT30;67758;39.572;2.652;2023-09-08T02:43:58;22.20;77.71
68450;SHT30;67758;39.572;2.652;2023-09-08T02:46:24;22.14;78.01
68450;SHT30;67758;39.572;2.652;2023-09-08T02:48:51;22.06;78.28
68450;SHT30;67758;39.572;2.652;2023-09-08T02:51:18;22.13;78.23
68450;SHT30;67758;39.572;2.652;2023-09-08T02:53:43;22.12;77.87
68450;SHT30;67758;39.572;2.652;2023-09-08T02:56:09;22.10;77.74
68450;SHT30;67758;39.572;2.652;2023-09-08T02:58:36;22.07;77.87
68450;SHT30;67758;39.572;2.652;2023-09-08T03:01:15;22.12;77.43
68450;SHT30;67758;39.572;2.652;2023-09-08T03:03:42;22.09;77.51
68450;SHT30;67758;39.572;2.652;2023-09-08T03:06:09;22.06;77.58
68450;SHT30;67758;39.572;2.652;2023-09-08T03:08:35;22.07;77.46
68450;SHT30;67758;39.572;2.652;2023-09-08T03:11:03;22.00;77.62
68450;SHT30;67758;39.572;2.652;2023-09-08T03:13:29;22.03;77.58
68450;SHT30;67758;39.572;2.652;2023-09-08T03:15:55;22.03;77.51
68450;SHT30;67758;39.572;2.652;2023-09-08T03:18:22;22.02;77.39
68450;SHT30;67758;39.572;2.652;2023-09-08T03:20:51;22.00;77.36
68450;SHT30;67758;39.572;2.652;2023-09-08T03:23:24;21.99;77.36
68450;SHT30;67758;39.572;2.652;2023-09-08T03:25:52;21.99;77.29
68450;SHT30;67758;39.572;2.652;2023-09-08T03:28:17;21.99;77.45
68450;SHT30;67758;39.572;2.652;2023-09-08T03:30:46;21.99;77.53
68450;SHT30;67758;39.572;2.652;2023-09-08T03:33:12;21.97;77.47
68450;SHT30;67758;39.572;2.652;2023-09-08T03:35:46;21.99;77.53
68450;SHT30;67758;39.572;2.652;2023-09-08T03:38:11;21.97;77.51
68450;SHT30;67758;39.572;2.652;2023-09-08T03:40:37;21.93;77.58
68450;SHT30;67758;39.572;2.652;2023-09-08T03:43:04;21.90;77.76
68450;SHT30;67758;39.572;2.652;2023-09-08T03:45:29;21.88;77.80
68450;SHT30;67758;39.572;2.652;2023-09-08T03:47:55;21.88;77.83
68450;SHT30;67758;39.572;2.652;2023-09-08T03:50:21;21.90;77.78
68450;SHT30;67758;39.572;2.652;2023-09-08T03:52:47;21.92;77.69
68450;SHT30;67758;39.572;2.652;2023-09-08T03:55:12;21.95;77.57
68450;SHT30;67758;39.572;2.652;2023-09-08T03:57:38;22.02;77.35
68450;SHT30;67758;39.572;2.652;2023-09-08T04:00:05;22.02;77.37
68450;SHT30;67758;39.572;2.652;2023-09-08T04:02:32;22.02;77.24
68450;SHT30;67758;39.572;2.652;2023-09-08T04:04:58;22.00;77.39
68450;SHT30;67758;39.572;2.652;2023-09-08T04:07:24;21.99;77.39
68450;SHT30;67758;39.572;2.652;2023-09-08T04:09:50;21.97;77.16
68450;SHT30;67758;39.572;2.652;2023-09-08T04:12:15;21.96;77.33
68450;SHT30;67758;39.572;2.652;2023-09-08T04:14:41;21.99;77.31
68450;SHT30;67758;39.572;2.652;2023-09-08T04:17:07;21.99;77.20
68450;SHT30;67758;39.572;2.652;2023-09-08T04:19:33;21.96;77.17
68450;SHT30;67758;39.572;2.652;2023-09-08T04:21:59;21.93;77.27
68450;SHT30;67758;39.572;2.652;2023-09-08T04:24:25;21.96;77.32
68450;SHT30;67758;39.572;2.652;2023-09-08T04:26:53;21.95;77.35
68450;SHT30;67758;39.572;2.652;2023-09-08T04:29:19;21.83;77.55
68450;SHT30;67758;39.572;2.652;2023-09-08T04:31:45;21.79;77.67
68450;SHT30;67758;39.572;2.652;2023-09-08T04:34:10;21.76;77.80
68450;SHT30;67758;39.572;2.652;2023-09-08T04:36:36;21.73;77.81
68450;SHT30;67758;39.572;2.652;2023-09-08T04:39:02;21.75;77.93
68450;SHT30;67758;39.572;2.652;2023-09-08T04:41:28;21.67;78.07
68450;SHT30;67758;39.572;2.652;2023-09-08T04:43:54;21.66;78.14
68450;SHT30;67758;39.572;2.652;2023-09-08T04:46:23;21.66;78.16
68450;SHT30;67758;39.572;2.652;2023-09-08T04:48:48;21.65;78.16
68450;SHT30;67758;39.572;2.652;2023-09-08T04:51:14;21.62;78.23
68450;SHT30;67758;39.572;2.652;2023-09-08T04:53:40;21.56;78.35
68450;SHT30;67758;39.572;2.652;2023-09-08T04:56:05;21.61;78.33
68450;SHT30;67758;39.572;2.652;2023-09-08T04:58:31;21.59;78.33
68450;SHT30;67758;39.572;2.652;2023-09-08T05:00:57;21.59;78.31
68450;SHT30;67758;39.572;2.652;2023-09-08T05:03:22;21.58;78.31
68450;SHT30;67758;39.572;2.652;2023-09-08T05:05:48;21.56;78.26
68450;SHT30;67758;39.572;2.652;2023-09-08T05:08:16;21.55;78.29
68450;SHT30;67758;39.572;2.652;2023-09-08T05:10:49;21.49;78.66
68450;SHT30;67758;39.572;2.652;2023-09-08T05:13:16;21.49;78.93
68450;SHT30;67758;39.572;2.652;2023-09-08T05:15:42;21.45;79.05
68450;SHT30;67758;39.572;2.652;2023-09-08T05:18:09;21.44;79.07
68450;SHT30;67758;39.572;2.652;2023-09-08T05:20:37;21.45;79.29
68450;SHT30;67758;39.572;2.652;2023-09-08T05:23:03;21.48;79.18
68450;SHT30;67758;39.572;2.652;2023-09-08T05:25:29;21.62;78.89
68450;SHT30;67758;39.572;2.652;2023-09-08T05:27:54;21.67;78.44
68450;SHT30;67758;39.572;2.652;2023-09-08T05:30:20;21.72;78.19
68450;SHT30;67758;39.572;2.652;2023-09-08T05:32:46;21.85;78.19
68450;SHT30;67758;39.572;2.652;2023-09-08T05:35:11;21.79;77.86
68450;SHT30;67758;39.572;2.652;2023-09-08T05:37:37;21.73;77.82
68450;SHT30;67758;39.572;2.652;2023-09-08T05:40:03;21.72;77.79
68450;SHT30;67758;39.572;2.652;2023-09-08T05:42:30;21.75;77.99
68450;SHT30;67758;39.572;2.652;2023-09-08T05:44:56;21.67;77.86
68450;SHT30;67758;39.572;2.652;2023-09-08T05:47:25;21.69;77.90
68450;SHT30;67758;39.572;2.652;2023-09-08T05:49:50;21.71;77.94
68450;SHT30;67758;39.572;2.652;2023-09-08T05:52:16;21.72;77.79
68450;SHT30;67758;39.572;2.652;2023-09-08T05:54:42;21.72;77.94
68450;SHT30;67758;39.572;2.652;2023-09-08T05:57:07;21.73;77.73
68450;SHT30;67758;39.572;2.652;2023-09-08T05:59:33;21.69;77.68
68450;SHT30;67758;39.572;2.652;2023-09-08T06:01:58;21.63;77.80
68450;SHT30;67758;39.572;2.652;2023-09-08T06:04:24;21.62;77.89
68450;SHT30;67758;39.572;2.652;2023-09-08T06:06:50;21.62;77.92
68450;SHT30;67758;39.572;2.652;2023-09-08T06:09:48;21.67;78.24
68450;SHT30;67758;39.572;2.652;2023-09-08T06:16:17;21.65;77.93
68450;SHT30;67758;39.572;2.652;2023-09-08T06:19:15;21.67;77.81
68450;SHT30;67758;39.572;2.652;2023-09-08T06:28:39;22.04;77.61
68450;SHT30;67758;39.572;2.652;2023-09-08T06:31:14;21.88;77.04
68450;SHT30;67758;39.572;2.652;2023-09-08T06:34:12;21.76;77.27
68450;SHT30;67758;39.572;2.652;2023-09-08T06:37:22;21.79;77.35
68450;SHT30;67758;39.572;2.652;2023-09-08T06:39:47;21.82;77.12
68450;SHT30;67758;39.572;2.652;2023-09-08T06:42:13;21.88;77.15
68450;SHT30;67758;39.572;2.652;2023-09-08T06:44:43;21.93;77.00
68450;SHT30;67758;39.572;2.652;2023-09-08T06:47:12;21.96;76.86
68450;SHT30;67758;39.572;2.652;2023-09-08T06:49:43;22.09;76.67
68450;SHT30;67758;39.572;2.652;2023-09-08T06:52:11;22.18;76.48
68450;SHT30;67758;39.572;2.652;2023-09-08T06:54:40;22.18;76.50
68450;SHT30;67758;39.572;2.652;2023-09-08T06:57:06;22.26;76.46
68450;SHT30;67758;39.572;2.652;2023-09-08T06:59:32;22.36;76.37
68450;SHT30;67758;39.572;2.652;2023-09-08T07:01:58;22.47;76.30
68450;SHT30;67758;39.572;2.652;2023-09-08T07:04:24;22.54;76.10
68450;SHT30;67758;39.572;2.652;2023-09-08T07:06:49;22.64;75.90
68450;SHT30;67758;39.572;2.652;2023-09-08T07:09:15;22.75;75.65
68450;SHT30;67758;39.572;2.652;2023-09-08T07:11:41;22.81;75.57
68450;SHT30;67758;39.572;2.652;2023-09-08T07:14:08;22.96;75.33
68450;SHT30;67758;39.572;2.652;2023-09-08T07:16:34;23.06;74.94
68450;SHT30;67758;39.572;2.652;2023-09-08T07:19:01;23.12;74.72
68450;SHT30;67758;39.572;2.652;2023-09-08T07:21:27;23.18;74.49
68450;SHT30;67758;39.572;2.652;2023-09-08T07:23:52;23.20;74.61
68450;SHT30;67758;39.572;2.652;2023-09-08T07:26:19;23.26;73.98
68450;SHT30;67758;39.572;2.652;2023-09-08T07:28:45;23.33;73.71
68450;SHT30;67758;39.572;2.652;2023-09-08T07:31:11;23.45;73.84
68450;SHT30;67758;39.572;2.652;2023-09-08T07:33:37;23.48;73.78
68450;SHT30;67758;39.572;2.652;2023-09-08T07:36:07;23.55;73.70
68450;SHT30;67758;39.572;2.652;2023-09-08T07:38:33;23.56;73.45
68450;SHT30;67758;39.572;2.652;2023-09-08T07:41:01;23.57;73.56
68450;SHT30;67758;39.572;2.652;2023-09-08T07:43:28;23.63;73.79
68450;SHT30;67758;39.572;2.652;2023-09-08T07:45:53;23.69;73.71
68450;SHT30;67758;39.572;2.652;2023-09-08T07:48:19;23.97;73.25
68450;SHT30;67758;39.572;2.652;2023-09-08T07:50:45;23.97;73.40
68450;SHT30;67758;39.572;2.652;2023-09-08T07:53:10;23.97;73.61
68450;SHT30;67758;39.572;2.652;2023-09-08T07:55:38;24.00;73.99
68450;SHT30;67758;39.572;2.652;2023-09-08T07:58:03;24.01;74.00
68450;SHT30;67758;39.572;2.652;2023-09-08T08:00:30;24.01;74.23
68450;SHT30;67758;39.572;2.652;2023-09-08T08:02:57;24.10;74.55
68450;SHT30;67758;39.572;2.652;2023-09-08T08:05:23;24.10;74.93
68450;SHT30;67758;39.572;2.652;2023-09-08T08:07:49;24.24;74.55
68450;SHT30;67758;39.572;2.652;2023-09-08T08:10:18;24.30;74.72
68450;SHT30;67758;39.572;2.652;2023-09-08T08:12:44;24.30;74.96
68450;SHT30;67758;39.572;2.652;2023-09-08T08:15:10;24.28;73.76
68450;SHT30;67758;39.572;2.652;2023-09-08T08:17:37;24.35;73.96
68450;SHT30;67758;39.572;2.652;2023-09-08T08:20:04;24.32;72.51
68450;SHT30;67758;39.572;2.652;2023-09-08T08:22:38;24.35;71.21
68450;SHT30;67758;39.572;2.652;2023-09-08T08:25:04;24.42;71.48
68450;SHT30;67758;39.572;2.652;2023-09-08T08:27:30;24.59;72.08
68450;SHT30;67758;39.572;2.652;2023-09-08T08:29:57;24.68;71.60
68450;SHT30;67758;39.572;2.652;2023-09-08T08:32:29;24.82;70.53
68450;SHT30;67758;39.572;2.652;2023-09-08T08:34:55;24.89;70.62
68450;SHT30;67758;39.572;2.652;2023-09-08T08:37:22;24.96;71.84
68450;SHT30;67758;39.572;2.652;2023-09-08T08:39:47;25.06;72.91
68450;SHT30;67758;39.572;2.652;2023-09-08T08:42:13;25.15;73.39
68450;SHT30;67758;39.572;2.652;2023-09-08T08:44:40;25.24;73.42
68450;SHT30;67758;39.572;2.652;2023-09-08T08:47:07;25.27;73.57
68450;SHT30;67758;39.572;2.652;2023-09-08T08:49:33;25.30;73.63
68450;SHT30;67758;39.572;2.652;2023-09-08T08:52:01;25.33;73.41
68450;SHT30;67758;39.572;2.652;2023-09-08T08:54:35;25.29;72.65
68450;SHT30;67758;39.572;2.652;2023-09-08T08:57:03;25.34;71.89
68450;SHT30;67758;39.572;2.652;2023-09-08T08:59:30;25.34;73.40
68450;SHT30;67758;39.572;2.652;2023-09-08T09:01:59;25.46;73.24
68450;SHT30;67758;39.572;2.652;2023-09-08T09:04:26;25.50;72.96
68450;SHT30;67758;39.572;2.652;2023-09-08T09:06:55;25.56;73.38
68450;SHT30;67758;39.572;2.652;2023-09-08T09:09:21;25.53;73.54
68450;SHT30;67758;39.572;2.652;2023-09-08T09:11:48;25.50;73.91
68450;SHT30;67758;39.572;2.652;2023-09-08T09:14:14;25.53;74.03
68450;SHT30;67758;39.572;2.652;2023-09-08T09:16:40;25.67;73.16
68450;SHT30;67758;39.572;2.652;2023-09-08T09:19:06;25.69;72.94
68450;SHT30;67758;39.572;2.652;2023-09-08T09:21:46;25.81;71.99
68450;SHT30;67758;39.572;2.652;2023-09-08T09:24:17;25.90;72.80
68450;SHT30;67758;39.572;2.652;2023-09-08T09:26:53;26.01;72.70
68450;SHT30;67758;39.572;2.652;2023-09-08T09:29:19;26.00;71.30
68450;SHT30;67758;39.572;2.652;2023-09-08T09:31:53;26.08;72.28
68450;SHT30;67758;39.572;2.652;2023-09-08T09:34:20;26.17;71.86
68450;SHT30;67758;39.572;2.652;2023-09-08T09:36:48;26.11;69.63
68450;SHT30;67758;39.572;2.652;2023-09-08T09:39:22;26.18;71.15
68450;SHT30;67758;39.572;2.652;2023-09-08T09:41:53;26.14;70.56
68450;SHT30;67758;39.572;2.652;2023-09-08T09:44:19;26.21;70.91
68450;SHT30;67758;39.572;2.652;2023-09-08T09:46:47;26.15;70.83
68450;SHT30;67758;39.572;2.652;2023-09-08T09:49:14;26.28;70.65
68450;SHT30;67758;39.572;2.652;2023-09-08T09:51:42;26.31;70.47
68450;SHT30;67758;39.572;2.652;2023-09-08T09:54:11;26.45;70.26
68450;SHT30;67758;39.572;2.652;2023-09-08T09:56:38;26.55;69.63
68450;SHT30;67758;39.572;2.652;2023-09-08T09:59:04;26.76;68.89
68450;SHT30;67758;39.572;2.652;2023-09-08T10:01:32;26.83;68.26
68450;SHT30;67758;39.572;2.652;2023-09-08T10:04:06;26.92;67.90
68450;SHT30;67758;39.572;2.652;2023-09-08T10:06:58;26.86;69.29
68450;SHT30;67758;39.572;2.652;2023-09-08T10:09:49;26.96;68.91
68450;SHT30;67758;39.572;2.652;2023-09-08T10:12:26;27.08;69.27
68450;SHT30;67758;39.572;2.652;2023-09-08T10:15:02;27.17;67.71
68450;SHT30;67758;39.572;2.652;2023-09-08T10:17:37;27.11;68.28
68450;SHT30;67758;39.572;2.652;2023-09-08T10:20:16;27.34;68.90
68450;SHT30;67758;39.572;2.652;2023-09-08T10:25:42;27.53;69.04
68450;SHT30;67758;39.572;2.652;2023-09-08T10:28:09;27.61;68.60
68450;SHT30;67758;39.572;2.652;2023-09-08T10:30:36;27.59;68.34
68450;SHT30;67758;39.572;2.652;2023-09-08T10:33:03;27.72;68.04
68450;SHT30;67758;39.572;2.652;2023-09-08T10:35:36;27.89;67.90
68450;SHT30;67758;39.572;2.652;2023-09-08T10:38:32;28.84;66.06
68450;SHT30;67758;39.572;2.652;2023-09-08T10:41:26;30.14;62.31
68450;SHT30;67758;39.572;2.652;2023-09-08T10:44:23;30.96;60.25
68450;SHT30;67758;39.572;2.652;2023-09-08T10:46:58;31.31;57.84
68450;SHT30;67758;39.572;2.652;2023-09-08T10:49:24;31.96;56.64
68450;SHT30;67758;39.572;2.652;2023-09-08T10:51:49;32.13;55.67
68450;SHT30;67758;39.572;2.652;2023-09-08T10:54:50;32.70;54.04
68450;SHT30;67758;39.572;2.652;2023-09-08T10:57:27;32.63;56.13
68450;SHT30;67758;39.572;2.652;2023-09-08T10:59:57;32.43;55.59
68450;SHT30;67758;39.572;2.652;2023-09-08T11:02:35;32.96;54.63
68450;SHT30;67758;39.572;2.652;2023-09-08T11:05:03;33.22;53.29
68450;SHT30;67758;39.572;2.652;2023-09-08T11:07:32;33.15;53.77
68450;SHT30;67758;39.572;2.652;2023-09-08T11:10:07;33.11;54.35
68450;SHT30;67758;39.572;2.652;2023-09-08T11:12:36;33.22;54.77
68450;SHT30;67758;39.572;2.652;2023-09-08T11:15:07;32.61;55.19
68450;SHT30;67758;39.572;2.652;2023-09-08T11:17:37;33.14;53.99
68450;SHT30;67758;39.572;2.652;2023-09-08T11:20:11;33.23;53.02
68450;SHT30;67758;39.572;2.652;2023-09-08T11:22:38;33.46;53.01
68450;SHT30;67758;39.572;2.652;2023-09-08T11:25:11;33.65;53.12
68450;SHT30;67758;39.572;2.652;2023-09-08T11:27:43;33.15;53.67
68450;SHT30;67758;39.572;2.652;2023-09-08T11:30:35;33.30;54.01
68450;SHT30;67758;39.572;2.652;2023-09-08T11:33:04;33.14;54.36
68450;SHT30;67758;39.572;2.652;2023-09-08T11:35:58;33.06;53.84
68450;SHT30;67758;39.572;2.652;2023-09-08T11:38:38;33.39;53.69
68450;SHT30;67758;39.572;2.652;2023-09-08T11:41:04;33.41;53.91
68450;SHT30;67758;39.572;2.652;2023-09-08T11:43:32;33.73;52.59
68450;SHT30;67758;39.572;2.652;2023-09-08T11:46:02;33.46;52.20
68450;SHT30;67758;39.572;2.652;2023-09-08T11:48:29;33.60;51.76
68450;SHT30;67758;39.572;2.652;2023-09-08T11:50:54;33.79;51.39
68450;SHT30;67758;39.572;2.652;2023-09-08T11:53:21;33.72;51.60
68450;SHT30;67758;39.572;2.652;2023-09-08T11:55:47;33.46;51.04
68450;SHT30;67758;39.572;2.652;2023-09-08T11:58:13;33.92;49.35
68450;SHT30;67758;39.572;2.652;2023-09-08T12:00:40;33.70;48.20
68450;SHT30;67758;39.572;2.652;2023-09-08T12:03:13;34.06;48.44
68450;SHT30;67758;39.572;2.652;2023-09-08T12:05:40;34.20;48.38
68450;SHT30;67758;39.572;2.652;2023-09-08T12:08:07;34.03;47.95
68450;SHT30;67758;39.572;2.652;2023-09-08T12:10:42;33.67;48.72
68450;SHT30;67758;39.572;2.652;2023-09-08T12:13:09;33.79;48.10
68450;SHT30;67758;39.572;2.652;2023-09-08T12:15:36;33.76;49.35
68450;SHT30;67758;39.572;2.652;2023-09-08T12:18:08;33.77;48.10
68450;SHT30;67758;39.572;2.652;2023-09-08T12:20:34;33.76;48.77
68450;SHT30;67758;39.572;2.652;2023-09-08T12:23:05;34.06;47.82
68450;SHT30;67758;39.572;2.652;2023-09-08T12:25:33;33.79;47.77
68450;SHT30;67758;39.572;2.652;2023-09-08T12:28:00;33.39;49.76
68450;SHT30;67758;39.572;2.652;2023-09-08T12:30:27;33.73;49.62
68450;SHT30;67758;39.572;2.652;2023-09-08T12:32:58;33.46;50.70
68450;SHT30;67758;39.572;2.652;2023-09-08T12:35:25;32.95;50.59
68450;SHT30;67758;39.572;2.652;2023-09-08T12:38:01;32.28;53.13
68450;SHT30;67758;39.572;2.652;2023-09-08T12:40:29;32.20;51.45
68450;SHT30;67758;39.572;2.652;2023-09-08T12:42:59;32.55;50.33
68450;SHT30;67758;39.572;2.652;2023-09-08T12:45:27;32.44;47.64
68450;SHT30;67758;39.572;2.652;2023-09-08T12:48:00;32.33;47.37
68450;SHT30;67758;39.572;2.652;2023-09-08T12:50:30;32.64;47.22
68450;SHT30;67758;39.572;2.652;2023-09-08T12:52:56;32.43;47.25
68450;SHT30;67758;39.572;2.652;2023-09-08T12:55:29;32.51;47.49
68450;SHT30;67758;39.572;2.652;2023-09-08T12:58:06;32.67;46.11
68450;SHT30;67758;39.572;2.652;2023-09-08T13:00:34;32.38;48.20
68450;SHT30;67758;39.572;2.652;2023-09-08T13:03:01;31.96;47.16
68450;SHT30;67758;39.572;2.652;2023-09-08T13:05:27;31.83;49.31
68450;SHT30;67758;39.572;2.652;2023-09-08T13:08:02;32.33;48.93
68450;SHT30;67758;39.572;2.652;2023-09-08T13:10:28;32.74;46.23
68450;SHT30;67758;39.572;2.652;2023-09-08T13:12:55;32.98;45.32
68450;SHT30;67758;39.572;2.652;2023-09-08T13:15:20;32.64;46.30
68450;SHT30;67758;39.572;2.652;2023-09-08T13:17:47;33.06;45.42
68450;SHT30;67758;39.572;2.652;2023-09-08T13:20:13;33.06;44.77
68450;SHT30;67758;39.572;2.652;2023-09-08T13:22:38;32.79;45.75
68450;SHT30;67758;39.572;2.652;2023-09-08T13:25:07;32.94;44.74
68450;SHT30;67758;39.572;2.652;2023-09-08T13:27:34;33.02;45.28
68450;SHT30;67758;39.572;2.652;2023-09-08T13:30:13;32.95;45.93
68450;SHT30;67758;39.572;2.652;2023-09-08T13:32:44;32.50;46.87
68450;SHT30;67758;39.572;2.652;2023-09-08T13:35:11;32.64;47.21
68450;SHT30;67758;39.572;2.652;2023-09-08T13:37:38;31.86;48.93
68450;SHT30;67758;39.572;2.652;2023-09-08T13:40:04;31.29;50.17
68450;SHT30;67758;39.572;2.652;2023-09-08T13:42:30;31.41;50.45
68450;SHT30;67758;39.572;2.652;2023-09-08T13:44:55;31.63;50.94
68450;SHT30;67758;39.572;2.652;2023-09-08T13:47:21;31.73;51.02
68450;SHT30;67758;39.572;2.652;2023-09-08T13:49:47;31.77;49.94
68450;SHT30;67758;39.572;2.652;2023-09-08T13:52:12;32.07;49.95
68450;SHT30;67758;39.572;2.652;2023-09-08T13:54:38;32.13;48.85
68450;SHT30;67758;39.572;2.652;2023-09-08T13:57:04;32.17;49.14
68450;SHT30;67758;39.572;2.652;2023-09-08T13:59:30;31.97;49.22
68450;SHT30;67758;39.572;2.652;2023-09-08T14:01:56;31.77;49.95
68450;SHT30;67758;39.572;2.652;2023-09-08T14:04:23;31.77;50.82
68450;SHT30;67758;39.572;2.652;2023-09-08T14:06:49;31.75;51.11
68450;SHT30;67758;39.572;2.652;2023-09-08T14:09:17;31.55;51.26
68450;SHT30;67758;39.572;2.652;2023-09-08T14:12:11;31.85;51.03
68450;SHT30;67758;39.572;2.652;2023-09-08T14:14:37;31.61;51.55
68450;SHT30;67758;39.572;2.652;2023-09-08T14:17:03;31.85;51.40
68450;SHT30;67758;39.572;2.652;2023-09-08T14:19:29;32.34;50.57
68450;SHT30;67758;39.572;2.652;2023-09-08T14:21:54;32.87;49.67
68450;SHT30;67758;39.572;2.652;2023-09-08T14:24:21;32.91;49.26
68450;SHT30;67758;39.572;2.652;2023-09-08T14:26:46;32.88;48.82
68450;SHT30;67758;39.572;2.652;2023-09-08T14:29:12;33.05;48.69
68450;SHT30;67758;39.572;2.652;2023-09-08T14:31:38;33.36;48.34
68450;SHT30;67758;39.572;2.652;2023-09-08T14:34:04;33.55;48.06
68450;SHT30;67758;39.572;2.652;2023-09-08T14:36:29;33.42;48.26
68450;SHT30;67758;39.572;2.652;2023-09-08T14:38:55;33.16;48.17
68450;SHT30;67758;39.572;2.652;2023-09-08T14:41:21;33.73;47.00
68450;SHT30;67758;39.572;2.652;2023-09-08T14:43:47;33.92;47.78
68450;SHT30;67758;39.572;2.652;2023-09-08T14:46:12;33.52;47.66
68450;SHT30;67758;39.572;2.652;2023-09-08T14:48:38;33.42;47.50
68450;SHT30;67758;39.572;2.652;2023-09-08T14:51:06;33.66;47.62
68450;SHT30;67758;39.572;2.652;2023-09-08T14:53:32;33.52;47.19
68450;SHT30;67758;39.572;2.652;2023-09-08T14:56:00;33.45;46.30
68450;SHT30;67758;39.572;2.652;2023-09-08T14:58:30;33.67;45.42
68450;SHT30;67758;39.572;2.652;2023-09-08T15:01:02;33.98;44.59
68450;SHT30;67758;39.572;2.652;2023-09-08T15:03:31;33.79;45.29
68450;SHT30;67758;39.572;2.652;2023-09-08T15:05:57;33.77;45.25
68450;SHT30;67758;39.572;2.652;2023-09-08T15:08:23;33.79;44.44
68450;SHT30;67758;39.572;2.652;2023-09-08T15:10:48;33.73;45.00
68450;SHT30;67758;39.572;2.652;2023-09-08T15:13:14;33.76;44.60
68450;SHT30;67758;39.572;2.652;2023-09-08T15:15:40;34.14;44.52
68450;SHT30;67758;39.572;2.652;2023-09-08T15:18:06;33.85;45.74
68450;SHT30;67758;39.572;2.652;2023-09-08T15:20:32;33.63;46.04
68450;SHT30;67758;39.572;2.652;2023-09-08T15:23:07;33.69;46.24
68450;SHT30;67758;39.572;2.652;2023-09-08T15:25:33;33.86;45.67
68450;SHT30;67758;39.572;2.652;2023-09-08T15:27:58;34.08;45.67
68450;SHT30;67758;39.572;2.652;2023-09-08T15:30:28;33.96;45.06
68450;SHT30;67758;39.572;2.652;2023-09-08T15:33:02;33.87;45.59
68450;SHT30;67758;39.572;2.652;2023-09-08T15:35:30;33.94;45.36
68450;SHT30;67758;39.572;2.652;2023-09-08T15:37:55;33.70;45.41
68450;SHT30;67758;39.572;2.652;2023-09-08T15:40:21;33.98;45.33
68450;SHT30;67758;39.572;2.652;2023-09-08T15:42:51;33.97;45.38
68450;SHT30;67758;39.572;2.652;2023-09-08T15:45:18;33.74;46.62
68450;SHT30;67758;39.572;2.652;2023-09-08T15:47:44;34.25;45.77
68450;SHT30;67758;39.572;2.652;2023-09-08T15:50:11;34.06;46.55
68450;SHT30;67758;39.572;2.652;2023-09-08T15:52:37;33.15;46.98
68450;SHT30;67758;39.572;2.652;2023-09-08T15:55:04;33.30;46.92